createdAt,value
2022-08-26T00:01:58.158Z,8.07
2022-08-26T00:04:29.769Z,8.35
2022-08-26T00:06:57.898Z,8.13
2022-08-26T00:09:26.708Z,7.90
2022-08-26T00:11:54.931Z,8.48
2022-08-26T00:14:28.249Z,9.05
2022-08-26T00:16:57.773Z,8.13
2022-08-26T00:19:25.839Z,8.63
2022-08-26T00:21:55.806Z,8.63
2022-08-26T00:24:23.840Z,8.20
2022-08-26T00:26:51.931Z,8.30
2022-08-26T00:29:21.256Z,8.53
2022-08-26T00:31:49.482Z,8.30
2022-08-26T00:34:19.541Z,8.20
2022-08-26T00:36:49.382Z,8.73
2022-08-26T00:39:21.993Z,8.70
2022-08-26T00:41:50.494Z,8.27
2022-08-26T00:44:19.168Z,8.50
2022-08-26T00:46:50.868Z,8.53
2022-08-26T00:49:23.503Z,8.48
2022-08-26T00:51:54.630Z,8.70
2022-08-26T00:54:26.952Z,8.20
2022-08-26T00:56:59.941Z,8.57
2022-08-26T00:59:28.901Z,8.77
2022-08-26T01:02:02.812Z,8.57
2022-08-26T01:04:31.908Z,9.23
2022-08-26T01:07:00.452Z,8.82
2022-08-26T01:09:30.406Z,9.10
2022-08-26T01:12:00.441Z,8.50
2022-08-26T01:14:33.533Z,8.18
2022-08-26T01:17:02.899Z,8.50
2022-08-26T01:19:39.582Z,8.70
2022-08-26T01:22:12.218Z,8.70
2022-08-26T01:24:42.506Z,9.25
2022-08-26T01:27:13.773Z,8.82
2022-08-26T01:29:44.163Z,8.93
2022-08-26T01:32:15.628Z,8.17
2022-08-26T01:34:43.585Z,8.03
2022-08-26T01:37:15.660Z,8.45
2022-08-26T01:39:49.411Z,8.70
2022-08-26T01:42:18.909Z,8.93
2022-08-26T01:44:51.526Z,8.63
2022-08-26T01:47:22.162Z,8.68
2022-08-26T01:49:53.731Z,9.10
2022-08-26T01:52:27.465Z,8.90
2022-08-26T01:54:58.929Z,9.00
2022-08-26T01:57:27.027Z,9.10
2022-08-26T01:59:56.661Z,9.20
2022-08-26T02:02:25.069Z,9.10
2022-08-26T02:04:57.253Z,9.98
2022-08-26T02:07:26.818Z,9.55
2022-08-26T02:09:56.949Z,8.93
2022-08-26T02:12:26.105Z,8.90
2022-08-26T02:14:56.043Z,9.07
2022-08-26T02:17:27.946Z,9.57
2022-08-26T02:19:55.906Z,8.70
2022-08-26T02:22:25.540Z,8.93
2022-08-26T02:24:55.869Z,8.82
2022-08-26T02:27:28.181Z,9.30
2022-08-26T02:30:06.107Z,9.25
2022-08-26T02:32:34.971Z,9.00
2022-08-26T02:35:03.224Z,9.15
2022-08-26T02:37:32.661Z,9.55
2022-08-26T02:40:02.433Z,9.80
2022-08-26T02:42:32.581Z,10.35
2022-08-26T02:45:00.800Z,10.05
2022-08-26T02:47:29.200Z,10.45
2022-08-26T02:49:57.340Z,9.45
2022-08-26T02:52:25.410Z,9.52
2022-08-26T02:54:53.847Z,9.07
2022-08-26T02:57:22.191Z,9.25
2022-08-26T02:59:51.576Z,9.57
2022-08-26T03:02:19.645Z,9.20
2022-08-26T03:04:57.787Z,10.00
2022-08-26T03:07:30.352Z,10.07
2022-08-26T03:09:59.210Z,9.82
2022-08-26T03:12:27.191Z,10.60
2022-08-26T03:14:56.437Z,9.88
2022-08-26T03:17:24.674Z,9.83
2022-08-26T03:19:57.371Z,10.10
2022-08-26T03:22:25.833Z,9.50
2022-08-26T03:24:55.288Z,9.82
2022-08-26T03:27:23.180Z,9.90
2022-08-26T03:30:08.703Z,9.68
2022-08-26T03:32:41.544Z,11.27
2022-08-26T03:35:10.363Z,10.95
2022-08-26T03:37:38.415Z,10.55
2022-08-26T03:40:09.967Z,10.20
2022-08-26T03:42:39.104Z,10.70
2022-08-26T03:45:09.052Z,10.80
2022-08-26T03:47:37.698Z,10.73
2022-08-26T03:50:09.935Z,10.88
2022-08-26T03:52:43.121Z,11.02
2022-08-26T03:55:12.392Z,11.13
2022-08-26T03:57:40.447Z,10.75
2022-08-26T04:00:14.032Z,12.40
2022-08-26T04:02:48.657Z,14.35
2022-08-26T04:05:20.062Z,22.30
2022-08-26T04:07:48.502Z,26.13
2022-08-26T04:10:20.365Z,24.90
2022-08-26T04:12:48.692Z,27.58
2022-08-26T04:15:17.958Z,25.75
2022-08-26T04:17:45.853Z,27.75
2022-08-26T04:20:16.212Z,27.23
2022-08-26T04:22:45.910Z,26.35
2022-08-26T04:25:14.405Z,28.33
2022-08-26T04:27:42.242Z,28.60
2022-08-26T04:30:11.397Z,45.90
2022-08-26T04:32:39.682Z,33.42
2022-08-26T04:35:10.115Z,33.10
2022-08-26T04:37:38.758Z,35.05
2022-08-26T04:40:10.067Z,35.45
2022-08-26T04:42:38.406Z,34.83
2022-08-26T04:45:10.313Z,35.95
2022-08-26T04:47:39.552Z,35.28
2022-08-26T04:50:09.134Z,37.13
2022-08-26T04:52:38.983Z,38.63
2022-08-26T04:55:09.644Z,37.97
2022-08-26T04:57:37.796Z,41.53
2022-08-26T05:00:10.357Z,41.15
2022-08-26T05:02:39.420Z,42.97
2022-08-26T05:05:08.536Z,41.85
2022-08-26T05:07:37.075Z,48.15
2022-08-26T05:10:08.887Z,52.33
2022-08-26T05:12:38.315Z,51.55
2022-08-26T05:15:07.966Z,52.33
2022-08-26T05:17:36.446Z,56.53
2022-08-26T05:20:05.424Z,55.33
2022-08-26T05:22:34.634Z,55.55
2022-08-26T05:25:02.769Z,59.92
2022-08-26T05:27:30.685Z,58.53
2022-08-26T05:29:59.945Z,63.72
2022-08-26T05:32:29.180Z,61.15
2022-08-26T05:34:57.254Z,58.55
2022-08-26T05:37:26.565Z,63.50
2022-08-26T05:39:54.551Z,63.13
2022-08-26T05:42:22.507Z,66.32
2022-08-26T05:44:56.038Z,67.43
2022-08-26T05:47:26.204Z,78.22
2022-08-26T05:49:55.330Z,80.37
2022-08-26T05:52:25.869Z,80.78
2022-08-26T05:54:54.314Z,84.65
2022-08-26T05:57:22.694Z,84.43
2022-08-26T05:59:51.599Z,87.50
2022-08-26T06:02:19.548Z,86.40
2022-08-26T06:04:48.878Z,81.90
2022-08-26T06:07:17.118Z,82.45
2022-08-26T06:09:46.436Z,81.23
2022-08-26T06:12:15.738Z,79.18
2022-08-26T06:14:46.575Z,78.20
2022-08-26T06:17:17.012Z,76.05
2022-08-26T06:19:45.756Z,76.20
2022-08-26T06:22:28.890Z,75.60
2022-08-26T06:25:14.496Z,78.38
2022-08-26T06:27:42.366Z,81.65
2022-08-26T06:30:11.152Z,83.80
2022-08-26T06:32:40.393Z,84.70
2022-08-26T06:35:12.218Z,92.22
2022-08-26T06:37:42.801Z,87.03
2022-08-26T06:40:11.706Z,92.43
2022-08-26T06:42:39.705Z,89.82
2022-08-26T06:45:08.607Z,94.27
2022-08-26T06:47:36.942Z,95.05
2022-08-26T06:50:05.134Z,94.13
2022-08-26T06:52:32.996Z,92.80
2022-08-26T06:55:04.218Z,93.82
2022-08-26T06:57:34.817Z,87.90
2022-08-26T07:00:07.748Z,89.85
2022-08-26T07:02:35.756Z,89.70
2022-08-26T07:05:04.006Z,86.80
2022-08-26T07:07:32.609Z,88.23
2022-08-26T07:10:00.831Z,88.05
2022-08-26T07:12:30.871Z,86.43
2022-08-26T07:14:58.849Z,89.20
2022-08-26T07:17:26.833Z,87.10
2022-08-26T07:19:55.285Z,86.15
2022-08-26T07:22:23.170Z,87.70
2022-08-26T07:24:52.242Z,84.25
2022-08-26T07:27:20.143Z,89.10
2022-08-26T07:29:50.259Z,81.05
2022-08-26T07:32:20.737Z,80.00
2022-08-26T07:34:51.258Z,75.03
2022-08-26T07:37:19.364Z,81.07
2022-08-26T07:39:48.278Z,76.22
2022-08-26T07:42:19.678Z,75.68
2022-08-26T07:44:47.749Z,79.40
2022-08-26T07:47:25.872Z,116.03
2022-08-26T07:49:55.315Z,75.10
2022-08-26T07:52:26.711Z,74.30
2022-08-26T07:54:55.860Z,72.63
2022-08-26T07:57:24.269Z,73.13
2022-08-26T07:59:52.397Z,70.03
2022-08-26T08:02:25.902Z,67.50
2022-08-26T08:04:54.766Z,67.03
2022-08-26T08:07:38.556Z,68.53
2022-08-26T08:10:13.441Z,63.92
2022-08-26T08:12:42.535Z,65.00
2022-08-26T08:15:11.546Z,64.15
2022-08-26T08:17:40.866Z,62.33
2022-08-26T08:20:09.614Z,63.08
2022-08-26T08:22:39.320Z,62.93
2022-08-26T08:25:10.525Z,64.57
2022-08-26T08:27:41.171Z,62.45
2022-08-26T08:30:10.749Z,64.07
2022-08-26T08:32:44.318Z,63.58
2022-08-26T08:35:14.889Z,64.23
2022-08-26T08:37:43.662Z,76.72
2022-08-26T08:40:13.952Z,68.03
2022-08-26T08:42:46.944Z,65.10
2022-08-26T08:45:17.542Z,64.65
2022-08-26T08:47:51.378Z,64.17
2022-08-26T08:50:25.972Z,65.22
2022-08-26T08:53:00.156Z,61.60
2022-08-26T08:55:46.232Z,62.28
2022-08-26T08:58:19.131Z,62.80
2022-08-26T09:00:51.625Z,61.53
2022-08-26T09:03:31.674Z,59.03
2022-08-26T09:06:01.072Z,55.20
2022-08-26T09:08:35.181Z,56.90
2022-08-26T09:11:04.245Z,56.63
2022-08-26T09:13:32.170Z,52.95
2022-08-26T09:16:07.310Z,56.88
2022-08-26T09:18:48.101Z,57.40
2022-08-26T09:21:18.004Z,58.70
2022-08-26T09:23:49.543Z,56.30
2022-08-26T09:26:20.059Z,58.28
2022-08-26T09:28:49.683Z,55.33
2022-08-26T09:31:21.767Z,57.67
2022-08-26T09:34:07.164Z,55.60
2022-08-26T09:36:41.068Z,54.08
2022-08-26T09:39:26.020Z,53.22
2022-08-26T09:42:04.475Z,50.20
2022-08-26T09:44:33.027Z,52.40
2022-08-26T09:47:03.301Z,51.53
2022-08-26T09:49:36.497Z,49.58
2022-08-26T09:52:15.148Z,45.83
2022-08-26T09:54:44.312Z,47.30
2022-08-26T09:57:17.808Z,48.45
2022-08-26T09:59:45.753Z,50.40
2022-08-26T10:02:41.476Z,48.00
2022-08-26T10:05:27.336Z,50.70
2022-08-26T10:07:58.535Z,47.38
2022-08-26T10:10:31.397Z,47.17
2022-08-26T10:13:04.849Z,46.13
2022-08-26T10:15:40.976Z,44.90
2022-08-26T10:18:18.876Z,43.72
2022-08-26T10:20:55.328Z,41.10
2022-08-26T10:23:26.122Z,41.42
2022-08-26T10:25:56.996Z,40.88
2022-08-26T10:28:33.494Z,45.47
2022-08-26T10:31:05.871Z,46.13
2022-08-26T10:33:33.958Z,43.10
2022-08-26T10:36:06.376Z,42.13
2022-08-26T10:38:36.817Z,42.33
2022-08-26T10:41:10.463Z,40.38
2022-08-26T10:43:44.197Z,36.53
2022-08-26T10:46:17.180Z,33.95
2022-08-26T10:48:48.367Z,31.30
2022-08-26T10:51:23.586Z,31.88
2022-08-26T10:53:55.836Z,32.28
2022-08-26T10:56:36.207Z,29.40
2022-08-26T10:59:10.406Z,31.55
2022-08-26T11:01:47.212Z,33.80
2022-08-26T11:04:34.858Z,31.57
2022-08-26T11:07:39.944Z,31.97
2022-08-26T11:11:04.651Z,33.50
2022-08-26T11:14:09.449Z,31.58
2022-08-26T11:16:42.786Z,31.13
2022-08-26T11:19:13.249Z,30.35
2022-08-26T11:21:50.828Z,32.15
2022-08-26T11:25:04.045Z,30.80
2022-08-26T11:28:03.905Z,29.33
2022-08-26T11:30:48.580Z,29.20
2022-08-26T11:33:48.770Z,29.58
2022-08-26T11:36:54.592Z,31.98
2022-08-26T11:39:28.568Z,27.27
2022-08-26T11:42:01.108Z,26.00
2022-08-26T11:44:38.141Z,26.70
2022-08-26T11:47:07.986Z,25.42
2022-08-26T11:49:39.681Z,25.23
2022-08-26T11:52:15.873Z,25.08
2022-08-26T11:55:01.914Z,23.85
2022-08-26T11:57:31.965Z,24.40
2022-08-26T12:00:01.322Z,21.90
2022-08-26T12:02:29.724Z,23.58
2022-08-26T12:04:58.194Z,23.30
2022-08-26T12:07:28.813Z,22.77
2022-08-26T12:09:58.997Z,24.58
2022-08-26T12:12:34.644Z,23.48
2022-08-26T12:15:12.393Z,24.40
2022-08-26T12:17:41.036Z,22.02
2022-08-26T12:20:19.600Z,20.45
2022-08-26T12:22:48.419Z,20.55
2022-08-26T12:25:24.284Z,19.73
2022-08-26T12:27:54.169Z,19.85
2022-08-26T12:30:24.007Z,21.05
2022-08-26T12:32:58.875Z,20.45
2022-08-26T12:35:28.774Z,20.27
2022-08-26T12:37:57.757Z,20.40
2022-08-26T12:40:28.974Z,20.63
2022-08-26T12:43:00.434Z,20.80
2022-08-26T12:45:31.157Z,20.50
2022-08-26T12:48:01.232Z,20.57
2022-08-26T12:50:31.596Z,20.58
2022-08-26T12:53:01.403Z,20.92
2022-08-26T12:55:37.936Z,21.27
2022-08-26T12:58:26.669Z,19.17
2022-08-26T13:00:56.244Z,20.27
2022-08-26T13:03:43.411Z,20.75
2022-08-26T13:06:17.257Z,23.80
2022-08-26T13:08:46.756Z,19.58
2022-08-26T13:11:18.559Z,19.38
2022-08-26T13:13:49.367Z,20.63
2022-08-26T13:16:17.331Z,19.90
2022-08-26T13:18:45.347Z,20.37
2022-08-26T13:21:15.393Z,18.98
2022-08-26T13:23:43.343Z,19.65
2022-08-26T13:26:11.370Z,20.90
2022-08-26T13:28:39.308Z,19.02
2022-08-26T13:31:09.126Z,16.80
2022-08-26T13:33:38.002Z,17.35
2022-08-26T13:36:08.014Z,17.17
2022-08-26T13:38:36.532Z,16.00
2022-08-26T13:41:04.797Z,14.25
2022-08-26T13:43:33.619Z,15.32
2022-08-26T13:46:01.845Z,13.63
2022-08-26T13:48:31.447Z,14.05
2022-08-26T13:50:59.401Z,12.60
2022-08-26T13:53:29.197Z,23.20
2022-08-26T13:55:57.339Z,13.25
2022-08-26T13:58:25.545Z,11.75
2022-08-26T14:00:53.576Z,10.50
2022-08-26T14:03:21.707Z,11.23
2022-08-26T14:05:51.045Z,10.05
2022-08-26T14:08:19.017Z,10.60
2022-08-26T14:13:16.877Z,9.57
2022-08-26T14:15:44.934Z,9.63
2022-08-26T14:18:16.076Z,9.50
2022-08-26T14:20:46.140Z,8.77
2022-08-26T14:23:16.019Z,8.20
2022-08-26T14:25:44.098Z,8.40
2022-08-26T14:28:12.611Z,8.60
2022-08-26T14:30:41.963Z,8.30
2022-08-26T14:33:12.047Z,8.07
2022-08-26T14:35:40.181Z,8.10
2022-08-26T14:38:17.559Z,7.88
2022-08-26T14:40:45.692Z,7.10
2022-08-26T14:43:15.143Z,6.97
2022-08-26T14:45:45.747Z,7.88
2022-08-26T14:48:14.123Z,7.13
2022-08-26T14:50:42.125Z,7.70
2022-08-26T14:53:27.304Z,7.47
2022-08-26T14:55:56.502Z,25.13
2022-08-26T14:58:24.373Z,8.13
2022-08-26T15:00:56.741Z,7.57
2022-08-26T15:03:24.731Z,7.53
2022-08-26T15:05:52.694Z,7.35
2022-08-26T15:08:20.793Z,7.20
2022-08-26T15:10:48.648Z,7.07
2022-08-26T15:13:18.142Z,6.80
2022-08-26T15:15:46.515Z,7.00
2022-08-26T15:18:14.332Z,7.47
2022-08-26T15:20:42.527Z,7.18
2022-08-26T15:23:11.003Z,6.32
2022-08-26T15:25:39.464Z,7.28
2022-08-26T15:28:07.429Z,6.88
2022-08-26T15:30:36.734Z,6.65
2022-08-26T15:33:04.693Z,6.57
2022-08-26T15:35:32.983Z,6.90
2022-08-26T15:38:03.730Z,7.10
2022-08-26T15:40:31.678Z,6.67
2022-08-26T15:43:17.694Z,7.10
2022-08-26T15:45:47.703Z,6.80
2022-08-26T15:48:16.244Z,6.93
2022-08-26T15:50:51.520Z,6.60
2022-08-26T15:53:19.487Z,5.87
2022-08-26T15:55:47.662Z,6.30
2022-08-26T15:58:16.779Z,6.25
2022-08-26T16:00:45.383Z,6.35
2022-08-26T16:03:14.817Z,5.97
2022-08-26T16:05:43.978Z,6.07
2022-08-26T16:08:13.447Z,6.20
2022-08-26T16:10:49.249Z,6.25
2022-08-26T16:13:19.141Z,6.00
2022-08-26T16:15:47.678Z,5.68
2022-08-26T16:18:17.374Z,8.00
2022-08-26T16:20:58.556Z,5.95
2022-08-26T16:23:38.426Z,5.63
2022-08-26T16:26:10.509Z,5.65
2022-08-26T16:28:39.051Z,5.63
2022-08-26T16:31:07.452Z,5.38
2022-08-26T16:33:37.703Z,5.47
2022-08-26T16:36:06.193Z,5.03
2022-08-26T16:38:34.302Z,5.43
2022-08-26T16:41:02.767Z,4.50
2022-08-26T16:43:30.728Z,4.70
2022-08-26T16:45:58.736Z,4.60
2022-08-26T16:48:27.500Z,4.97
2022-08-26T16:50:56.897Z,5.03
2022-08-26T16:53:25.082Z,4.80
2022-08-26T16:55:53.087Z,4.68
2022-08-26T16:58:22.334Z,4.53
2022-08-26T17:00:50.810Z,4.75
2022-08-26T17:03:18.801Z,4.78
2022-08-26T17:05:46.705Z,5.10
2022-08-26T17:08:24.360Z,4.85
2022-08-26T17:10:56.892Z,4.72
2022-08-26T17:13:25.966Z,4.90
2022-08-26T17:16:04.850Z,5.07
2022-08-26T17:18:33.572Z,4.50
2022-08-26T17:21:03.135Z,4.75
2022-08-26T17:23:32.602Z,4.70
2022-08-26T17:26:00.434Z,4.32
2022-08-26T17:28:28.597Z,4.67
2022-08-26T17:30:57.493Z,5.28
2022-08-26T17:33:25.449Z,4.75
2022-08-26T17:35:53.583Z,4.70
2022-08-26T17:38:21.785Z,5.05
2022-08-26T17:40:51.402Z,4.40
2022-08-26T17:43:19.802Z,4.68
2022-08-26T17:45:47.819Z,4.45
2022-08-26T17:48:15.660Z,4.53
2022-08-26T17:50:47.070Z,4.35
2022-08-26T17:53:19.129Z,4.93
2022-08-26T17:55:47.502Z,4.80
2022-08-26T17:58:19.148Z,4.55
2022-08-26T18:00:49.225Z,4.80
2022-08-26T18:03:17.635Z,5.18
2022-08-26T18:05:48.589Z,6.40
2022-08-26T18:08:16.802Z,6.67
2022-08-26T18:10:45.382Z,5.20
2022-08-26T18:13:14.845Z,4.90
2022-08-26T18:15:45.350Z,4.53
2022-08-26T18:18:14.372Z,4.90
2022-08-26T18:20:43.647Z,5.78
2022-08-26T18:23:11.838Z,4.68
2022-08-26T18:25:41.295Z,4.95
2022-08-26T18:28:09.378Z,5.38
2022-08-26T18:30:37.341Z,4.50
2022-08-26T18:33:06.689Z,4.50
2022-08-26T18:35:39.554Z,5.07
2022-08-26T18:38:11.246Z,4.70
2022-08-26T18:40:40.841Z,4.45
2022-08-26T18:43:08.841Z,4.60
2022-08-26T18:45:37.128Z,4.63
2022-08-26T18:48:07.164Z,4.28
2022-08-26T18:50:35.110Z,4.45
2022-08-26T18:53:03.352Z,4.75
2022-08-26T18:55:31.277Z,4.25
2022-08-26T18:57:59.133Z,4.22
2022-08-26T19:00:27.543Z,4.20
2022-08-26T19:02:55.373Z,3.93
2022-08-26T19:05:25.472Z,4.30
2022-08-26T19:07:53.363Z,3.80
2022-08-26T19:10:21.310Z,12.23
2022-08-26T19:12:51.837Z,4.10
2022-08-26T19:15:20.749Z,4.38
2022-08-26T19:17:48.647Z,43.25
2022-08-26T19:20:16.778Z,29.85
2022-08-26T19:22:46.190Z,3.67
2022-08-26T19:25:14.340Z,3.83
2022-08-26T19:27:42.142Z,3.80
2022-08-26T19:30:11.073Z,3.60
2022-08-26T19:32:39.000Z,3.55
2022-08-26T19:35:09.358Z,3.42
2022-08-26T19:37:37.450Z,3.60
2022-08-26T19:40:07.738Z,3.20
2022-08-26T19:42:35.705Z,3.50
2022-08-26T19:45:24.382Z,3.25
2022-08-26T19:47:53.983Z,3.47
2022-08-26T19:50:22.666Z,3.37
2022-08-26T19:52:50.513Z,3.17
2022-08-26T19:55:20.142Z,3.10
2022-08-26T19:57:48.018Z,3.10
2022-08-26T20:00:18.837Z,3.38
2022-08-26T20:02:46.712Z,3.05
2022-08-26T20:05:15.593Z,2.63
2022-08-26T20:07:43.931Z,2.72
2022-08-26T20:10:13.569Z,4.22
2022-08-26T20:12:43.589Z,2.80
2022-08-26T20:15:13.357Z,2.70
2022-08-26T20:17:41.525Z,2.75
2022-08-26T20:20:33.214Z,2.58
2022-08-26T20:23:03.526Z,2.50
2022-08-26T20:25:32.607Z,2.70
2022-08-26T20:28:02.203Z,2.70
2022-08-26T20:30:30.066Z,2.70
2022-08-26T20:32:57.965Z,2.85
2022-08-26T20:35:25.920Z,2.70
2022-08-26T20:37:53.797Z,3.40
2022-08-26T20:40:22.662Z,3.30
2022-08-26T20:42:50.509Z,2.97
2022-08-26T20:45:19.729Z,3.20
2022-08-26T20:47:47.595Z,3.20
2022-08-26T20:50:15.477Z,3.60
2022-08-26T20:52:43.393Z,3.50
2022-08-26T20:55:12.961Z,3.35
2022-08-26T20:57:43.241Z,4.00
2022-08-26T21:00:13.262Z,4.30
2022-08-26T21:02:43.518Z,4.10
2022-08-26T21:05:11.499Z,4.30
2022-08-26T21:07:39.844Z,4.53
2022-08-26T21:10:09.054Z,4.47
2022-08-26T21:12:37.605Z,4.50
2022-08-26T21:15:07.403Z,4.23
2022-08-26T21:17:35.513Z,4.25
2022-08-26T21:20:05.724Z,4.72
2022-08-26T21:22:34.026Z,4.72
2022-08-26T21:25:02.057Z,4.55
2022-08-26T21:27:29.892Z,5.43
2022-08-26T21:29:57.988Z,5.30
2022-08-26T21:32:25.800Z,5.03
2022-08-26T21:34:56.209Z,4.80
2022-08-26T21:37:26.185Z,4.63
2022-08-26T21:39:54.272Z,4.72
2022-08-26T21:42:22.141Z,4.80
2022-08-26T21:44:52.704Z,4.25
2022-08-26T21:47:21.002Z,4.07
2022-08-26T21:49:49.082Z,4.78
2022-08-26T21:52:16.921Z,4.70
2022-08-26T21:54:49.304Z,4.55
2022-08-26T21:57:27.389Z,4.80
2022-08-26T21:59:55.631Z,4.80
2022-08-26T22:02:23.929Z,4.60
2022-08-26T22:04:53.953Z,4.70
2022-08-26T22:07:21.870Z,4.72
2022-08-26T22:09:51.007Z,4.90
2022-08-26T22:12:19.242Z,4.97
2022-08-26T22:14:47.071Z,6.10
2022-08-26T22:17:15.254Z,5.70
2022-08-26T22:19:46.449Z,6.05
2022-08-26T22:22:15.105Z,6.30
2022-08-26T22:24:43.925Z,6.35
2022-08-26T22:27:13.555Z,6.32
2022-08-26T22:29:41.635Z,6.57
2022-08-26T22:32:09.703Z,6.10
2022-08-26T22:34:37.647Z,6.35
2022-08-26T22:37:05.791Z,6.17
2022-08-26T22:39:33.833Z,6.00
2022-08-26T22:42:01.820Z,5.57
2022-08-26T22:44:32.435Z,5.88
2022-08-26T22:47:00.419Z,5.82
2022-08-26T22:49:28.647Z,5.40
2022-08-26T22:51:56.615Z,5.28
2022-08-26T22:54:24.409Z,5.13
2022-08-26T22:56:52.214Z,5.63
2022-08-26T22:59:20.245Z,5.60
2022-08-26T23:01:49.448Z,5.57
2022-08-26T23:04:17.279Z,5.75
2022-08-26T23:06:57.455Z,5.05
2022-08-26T23:09:25.314Z,5.57
2022-08-26T23:11:55.886Z,5.57
2022-08-26T23:14:24.914Z,5.32
2022-08-26T23:16:54.405Z,6.53
2022-08-26T23:19:23.629Z,6.72
2022-08-26T23:21:51.844Z,7.82
2022-08-26T23:24:19.888Z,6.85
2022-08-26T23:26:47.915Z,6.30
2022-08-26T23:29:16.872Z,6.72
2022-08-26T23:31:45.006Z,7.50
2022-08-26T23:34:33.009Z,9.82
2022-08-26T23:37:01.279Z,10.98
2022-08-26T23:39:29.907Z,10.52
2022-08-26T23:41:58.108Z,11.48
2022-08-26T23:44:26.650Z,14.98
2022-08-26T23:46:54.606Z,16.63
2022-08-26T23:49:24.168Z,13.38
2022-08-26T23:52:09.662Z,12.07
2022-08-26T23:54:37.618Z,13.27
2022-08-26T23:57:05.958Z,10.23
2022-08-26T23:59:33.913Z,10.02
